Time;durP1;ratioP1;P1;durP2;ratioP2;P2;SDS_P1;SDS_P2;PMS_P1;PMS_P2;Temp;Humidity;BMP_temperature;BMP_pressure;BME280_temperature;BME280_humidity;BME280_pressure;Samples;Min_cycle;Max_cycle;Signal;HPM_P1;HPM_P2
2023/03/09 00:00:22;;;;;;;8.17;5.70;;;11.00;65.20;;;;;;6225087;28;20483;-66
2023/03/09 00:03:25;;;;;;;7.90;6.13;;;10.90;65.40;;;;;;6225273;28;20464;-66
2023/03/09 00:06:30;;;;;;;9.80;6.07;;;10.80;65.70;;;;;;6232632;28;20475;-65
2023/03/09 00:09:33;;;;;;;6.80;6.10;;;10.80;66.30;;;;;;6234324;28;21740;-65
2023/03/09 00:12:36;;;;;;;7.83;6.57;;;10.70;67.20;;;;;;6244986;28;20490;-65
2023/03/09 00:15:39;;;;;;;9.67;6.60;;;10.60;67.60;;;;;;6241969;28;20572;-65
2023/03/09 00:18:43;;;;;;;6.83;5.77;;;10.50;67.20;;;;;;6236540;28;20472;-66
2023/03/09 00:21:51;;;;;;;6.50;5.90;;;10.50;68.00;;;;;;6237622;28;20482;-66
2023/03/09 00:24:55;;;;;;;7.40;5.50;;;10.40;68.50;;;;;;6239640;28;20802;-65
2023/03/09 00:27:59;;;;;;;8.13;7.33;;;10.30;68.70;;;;;;6232549;28;20475;-66
2023/03/09 00:31:03;;;;;;;5.73;5.10;;;10.30;68.90;;;;;;6234743;28;20471;-65
2023/03/09 00:34:07;;;;;;;5.83;5.17;;;10.20;69.30;;;;;;6239374;28;20518;-65
2023/03/09 00:37:12;;;;;;;8.20;7.13;;;10.10;69.90;;;;;;6235655;28;20515;-64
2023/03/09 00:40:15;;;;;;;7.20;5.80;;;10.10;70.10;;;;;;6245646;28;20518;-65
2023/03/09 00:43:19;;;;;;;7.27;6.57;;;10.00;70.70;;;;;;6257518;28;20479;-66
2023/03/09 00:46:22;;;;;;;9.37;7.10;;;10.00;72.60;;;;;;6253384;28;20829;-66
2023/03/09 00:49:25;;;;;;;12.27;7.60;;;9.90;73.80;;;;;;6249449;28;20467;-65
2023/03/09 00:52:30;;;;;;;7.70;6.90;;;9.90;74.30;;;;;;6249234;28;20552;-66
2023/03/09 00:55:33;;;;;;;7.37;6.53;;;9.80;74.50;;;;;;6245039;28;20482;-65
2023/03/09 00:58:37;;;;;;;7.60;6.33;;;9.70;74.60;;;;;;6235767;28;20498;-66
2023/03/09 01:01:40;;;;;;;9.13;7.73;;;9.60;75.20;;;;;;6237688;28;20463;-66
2023/03/09 01:04:44;;;;;;;8.37;6.93;;;9.60;75.20;;;;;;6241372;28;20789;-66
2023/03/09 01:07:48;;;;;;;10.47;6.87;;;9.60;75.30;;;;;;6239693;28;20483;-67
2023/03/09 01:10:51;;;;;;;7.37;6.60;;;9.60;76.00;;;;;;6233202;28;20480;-68
2023/03/09 01:13:55;;;;;;;10.07;6.37;;;9.60;76.10;;;;;;6227039;28;20474;-68
2023/03/09 01:16:58;;;;;;;9.33;6.80;;;9.50;76.30;;;;;;6250128;28;20470;-68
2023/03/09 01:20:01;;;;;;;7.97;6.73;;;9.40;76.60;;;;;;6238247;28;20996;-68
2023/03/09 01:23:06;;;;;;;7.80;6.10;;;9.40;77.00;;;;;;6242779;28;20466;-68
2023/03/09 01:26:09;;;;;;;8.10;6.63;;;9.40;77.20;;;;;;6242331;28;20451;-68
2023/03/09 01:29:12;;;;;;;10.93;7.37;;;9.30;77.50;;;;;;6230585;28;20451;-67
2023/03/09 01:32:16;;;;;;;8.33;7.33;;;9.30;78.10;;;;;;6241289;28;20726;-68
2023/03/09 01:35:19;;;;;;;9.77;7.70;;;9.20;78.70;;;;;;6241375;28;20887;-67
2023/03/09 01:38:23;;;;;;;11.57;8.27;;;9.10;79.60;;;;;;6239386;28;20481;-66
2023/03/09 01:41:27;;;;;;;8.70;7.80;;;9.10;79.90;;;;;;6243705;28;20463;-66
2023/03/09 01:44:30;;;;;;;10.23;8.13;;;9.10;80.60;;;;;;6241431;28;20462;-66
2023/03/09 01:47:33;;;;;;;8.97;7.30;;;9.10;80.90;;;;;;6252764;28;20482;-66
2023/03/09 01:50:37;;;;;;;9.80;8.10;;;9.10;81.00;;;;;;6253049;28;20471;-66
2023/03/09 01:53:42;;;;;;;10.90;9.00;;;9.10;81.30;;;;;;6252745;28;20466;-68
2023/03/09 01:56:46;;;;;;;9.80;8.03;;;9.00;81.70;;;;;;6252789;28;20467;-67
2023/03/09 01:59:52;;;;;;;9.03;7.93;;;9.00;82.40;;;;;;6252475;28;20923;-67
2023/03/09 02:02:59;;;;;;;7.90;7.10;;;9.10;82.60;;;;;;6252621;28;20467;-68
2023/03/09 02:06:07;;;;;;;9.30;6.87;;;8.90;83.10;;;;;;6252592;28;20815;-68
2023/03/09 02:09:20;;;;;;;8.27;7.50;;;8.90;83.80;;;;;;6252407;28;20796;-68
2023/03/09 02:12:23;;;;;;;8.87;7.90;;;8.90;84.10;;;;;;6252701;28;20463;-67
2023/03/09 02:15:27;;;;;;;12.70;8.17;;;8.90;84.40;;;;;;6251800;28;20470;-68
2023/03/09 02:18:31;;;;;;;9.63;8.30;;;8.90;84.70;;;;;;6251306;28;20470;-68
2023/03/09 02:21:38;;;;;;;8.00;7.20;;;8.80;84.80;;;;;;6251464;28;20471;-68
2023/03/09 02:24:51;;;;;;;9.50;7.23;;;8.80;85.90;;;;;;6252402;28;20764;-68
2023/03/09 02:27:56;;;;;;;9.83;7.47;;;8.80;86.50;;;;;;6250777;28;20483;-67
2023/03/09 02:30:59;;;;;;;8.53;7.37;;;8.80;86.70;;;;;;6257068;28;20485;-67
2023/03/09 02:34:02;;;;;;;10.70;7.50;;;8.80;86.80;;;;;;6248030;28;20479;-68
2023/03/09 02:37:22;;;;;;;8.00;7.20;;;8.80;87.10;;;;;;6251299;28;20467;-66
2023/03/09 02:40:31;;;;;;;7.10;6.40;;;8.80;87.20;;;;;;6251474;28;20486;-67
2023/03/09 02:43:40;;;;;;;7.50;6.67;;;8.70;87.30;;;;;;6251747;28;20822;-68
2023/03/09 02:46:43;;;;;;;8.07;6.87;;;8.70;87.70;;;;;;6251298;28;20486;-68
2023/03/09 02:49:46;;;;;;;9.83;7.87;;;8.70;88.10;;;;;;6251076;28;20858;-68
2023/03/09 02:52:50;;;;;;;10.30;8.40;;;8.60;88.30;;;;;;6251131;28;20491;-63
2023/03/09 02:55:54;;;;;;;7.27;6.63;;;8.60;88.80;;;;;;6251038;28;20494;-63
2023/03/09 02:59:01;;;;;;;7.47;6.87;;;8.60;89.00;;;;;;6251118;28;20475;-63
2023/03/09 03:02:04;;;;;;;13.17;7.67;;;8.70;89.20;;;;;;6250545;28;20450;-63
2023/03/09 03:05:09;;;;;;;20.03;7.67;;;8.70;89.70;;;;;;6250658;28;20447;-64
2023/03/09 03:08:12;;;;;;;10.37;7.90;;;8.70;89.70;;;;;;6251141;28;20789;-63
2023/03/09 03:11:16;;;;;;;9.33;6.93;;;8.70;89.50;;;;;;6251788;28;20504;-63
2023/03/09 03:14:21;;;;;;;9.47;8.47;;;8.70;89.70;;;;;;6251366;28;20447;-64
2023/03/09 03:17:25;;;;;;;13.33;6.97;;;8.70;89.90;;;;;;6251784;28;20467;-64
2023/03/09 03:20:29;;;;;;;8.03;7.20;;;8.70;90.10;;;;;;6252224;28;20459;-64
2023/03/09 03:23:32;;;;;;;8.93;7.90;;;8.70;90.20;;;;;;6250780;28;20466;-64
2023/03/09 03:26:35;;;;;;;15.87;8.00;;;8.70;90.30;;;;;;6250393;28;20570;-64
2023/03/09 03:29:39;;;;;;;8.40;7.27;;;8.70;90.50;;;;;;6250596;28;20467;-63
2023/03/09 03:32:43;;;;;;;10.73;7.90;;;8.70;90.60;;;;;;6250354;28;20478;-63
2023/03/09 03:35:46;;;;;;;11.27;7.80;;;8.70;90.60;;;;;;6250472;28;20486;-63
2023/03/09 03:38:50;;;;;;;9.70;7.40;;;8.70;91.00;;;;;;6249404;28;20478;-63
2023/03/09 03:41:53;;;;;;;11.30;7.00;;;8.60;90.60;;;;;;6250472;28;20796;-64
2023/03/09 03:44:57;;;;;;;7.67;6.87;;;8.60;90.70;;;;;;6250381;28;20470;-64
2023/03/09 03:48:01;;;;;;;7.40;6.60;;;8.60;91.00;;;;;;6249993;28;20483;-63
2023/03/09 03:51:05;;;;;;;8.07;6.67;;;8.60;90.90;;;;;;6250256;28;20482;-63
2023/03/09 03:54:08;;;;;;;7.67;6.80;;;8.50;91.10;;;;;;6249918;28;20486;-67
2023/03/09 03:57:11;;;;;;;7.73;6.47;;;8.50;91.30;;;;;;6251049;28;20478;-67
2023/03/09 04:00:19;;;;;;;7.20;6.50;;;8.50;91.50;;;;;;6252227;28;20462;-68
2023/03/09 04:03:22;;;;;;;8.30;7.20;;;8.50;91.70;;;;;;6250119;28;20486;-64
2023/03/09 04:06:25;;;;;;;6.30;5.70;;;8.50;91.80;;;;;;6249952;28;20923;-62
2023/03/09 04:09:30;;;;;;;6.70;6.20;;;8.50;92.00;;;;;;6250026;28;20471;-61
2023/03/09 04:12:34;;;;;;;7.53;6.30;;;8.50;92.00;;;;;;6250062;28;20475;-67
2023/03/09 04:15:39;;;;;;;8.00;7.10;;;8.50;92.20;;;;;;6250990;28;20482;-67
2023/03/09 04:18:42;;;;;;;7.53;6.73;;;8.50;92.40;;;;;;6250917;28;20492;-61
2023/03/09 04:21:45;;;;;;;8.67;6.43;;;8.50;92.40;;;;;;6249516;28;20471;-62
2023/03/09 04:24:49;;;;;;;8.73;7.83;;;8.40;92.60;;;;;;6249571;28;20482;-63
2023/03/09 04:27:54;;;;;;;9.07;6.50;;;8.40;92.90;;;;;;6249503;28;20786;-63
2023/03/09 04:30:59;;;;;;;7.60;6.40;;;8.40;93.10;;;;;;6249301;28;20468;-63
2023/03/09 04:34:02;;;;;;;9.00;6.20;;;8.50;93.20;;;;;;6249586;28;20577;-63
2023/03/09 04:37:05;;;;;;;10.37;7.20;;;8.50;93.20;;;;;;6249782;28;20482;-64
2023/03/09 04:40:10;;;;;;;7.70;6.90;;;8.50;93.50;;;;;;6247248;28;20486;-64
2023/03/09 04:43:13;;;;;;;7.90;7.10;;;8.50;93.60;;;;;;6239754;28;20463;-64
2023/03/09 04:46:17;;;;;;;8.37;6.93;;;8.50;93.70;;;;;;6249067;28;20962;-64
2023/03/09 04:49:21;;;;;;;8.00;7.20;;;8.50;93.90;;;;;;6248895;28;20963;-64
2023/03/09 04:52:25;;;;;;;8.00;7.20;;;8.60;93.90;;;;;;6252329;28;20466;-64
2023/03/09 04:55:28;;;;;;;9.30;7.13;;;8.60;93.80;;;;;;6254207;28;20581;-63
2023/03/09 04:58:31;;;;;;;9.87;8.17;;;8.60;93.90;;;;;;6253801;28;20478;-63
2023/03/09 05:01:36;;;;;;;9.63;7.90;;;8.60;94.00;;;;;;6253709;28;20485;-63
2023/03/09 05:04:39;;;;;;;10.30;8.00;;;8.60;93.90;;;;;;6253798;28;20467;-64
2023/03/09 05:07:42;;;;;;;10.40;7.17;;;8.60;94.10;;;;;;6253702;28;20467;-64
2023/03/09 05:10:45;;;;;;;8.20;7.03;;;8.60;94.30;;;;;;6253257;28;20481;-63
2023/03/09 05:13:49;;;;;;;9.90;8.03;;;8.60;94.30;;;;;;6253681;28;20466;-63
2023/03/09 05:16:53;;;;;;;7.13;6.43;;;8.60;94.40;;;;;;6253279;28;20481;-63
2023/03/09 05:19:57;;;;;;;10.77;7.83;;;8.60;94.50;;;;;;6253662;28;20840;-63
2023/03/09 05:23:00;;;;;;;8.10;7.00;;;8.60;94.60;;;;;;6253371;28;20486;-63
2023/03/09 05:26:07;;;;;;;12.97;7.10;;;8.60;94.70;;;;;;6253210;28;20467;-63
2023/03/09 05:29:10;;;;;;;7.57;6.83;;;8.60;94.70;;;;;;6252852;28;20502;-63
2023/03/09 05:32:14;;;;;;;7.23;6.50;;;8.60;94.70;;;;;;6253469;28;20446;-64
2023/03/09 05:35:18;;;;;;;12.17;7.00;;;8.60;94.90;;;;;;6252748;28;20457;-63
2023/03/09 05:38:21;;;;;;;10.60;6.87;;;8.60;94.80;;;;;;6253005;28;20482;-64
2023/03/09 05:41:25;;;;;;;8.47;7.60;;;8.60;94.70;;;;;;6253112;28;21338;-63
2023/03/09 05:44:28;;;;;;;13.33;8.40;;;8.60;94.70;;;;;;6247823;28;20760;-63
2023/03/09 05:47:32;;;;;;;8.30;7.47;;;8.50;94.90;;;;;;6252488;28;20489;-63
2023/03/09 05:50:37;;;;;;;9.97;8.23;;;8.40;95.00;;;;;;6252656;28;20478;-63
2023/03/09 05:53:40;;;;;;;11.60;7.80;;;8.40;95.20;;;;;;6252650;28;20474;-63
2023/03/09 05:56:44;;;;;;;11.07;8.10;;;8.50;95.40;;;;;;6252847;28;20467;-64
2023/03/09 05:59:48;;;;;;;12.00;8.40;;;8.60;95.30;;;;;;6252788;28;20483;-64
2023/03/09 06:02:53;;;;;;;9.67;8.03;;;8.50;95.40;;;;;;6252315;28;20463;-64
2023/03/09 06:06:01;;;;;;;10.87;7.60;;;8.50;95.50;;;;;;6257943;28;20484;-64
2023/03/09 06:09:04;;;;;;;9.83;8.17;;;8.30;95.80;;;;;;6252672;28;20478;-64
2023/03/09 06:12:07;;;;;;;13.10;7.47;;;8.20;96.30;;;;;;6252746;28;20960;-64
2023/03/09 06:15:11;;;;;;;11.30;7.63;;;8.20;96.40;;;;;;6252144;28;20482;-63
2023/03/09 06:18:17;;;;;;;9.23;7.40;;;8.20;96.50;;;;;;6251969;28;20796;-64
2023/03/09 06:21:20;;;;;;;10.27;8.07;;;8.30;96.70;;;;;;6252020;28;20763;-64
2023/03/09 06:24:24;;;;;;;8.90;7.30;;;8.30;96.80;;;;;;6252770;28;20490;-63
2023/03/09 06:27:27;;;;;;;9.97;7.30;;;8.40;97.00;;;;;;6253159;28;20490;-64
2023/03/09 06:30:30;;;;;;;8.03;7.33;;;8.50;97.00;;;;;;6251790;28;20475;-63
2023/03/09 06:33:35;;;;;;;16.47;8.77;;;8.70;96.90;;;;;;6252102;28;20787;-64
2023/03/09 06:36:38;;;;;;;9.47;7.83;;;8.90;96.60;;;;;;6251729;28;20467;-62
2023/03/09 06:39:41;;;;;;;11.30;9.80;;;9.00;96.40;;;;;;6251248;28;20471;-62
2023/03/09 06:42:46;;;;;;;11.33;8.70;;;9.10;96.30;;;;;;6251359;28;20467;-64
2023/03/09 06:45:49;;;;;;;13.63;9.37;;;9.20;96.10;;;;;;6251305;28;20482;-63
2023/03/09 06:48:54;;;;;;;13.13;9.10;;;9.30;96.00;;;;;;6250821;28;20479;-63
2023/03/09 06:51:58;;;;;;;12.50;10.60;;;9.40;95.90;;;;;;6251178;28;20800;-63
2023/03/09 06:55:01;;;;;;;26.60;18.70;;;9.50;95.50;;;;;;6251092;28;20482;-62
2023/03/09 06:58:18;;;;;;;32.87;24.10;;;9.60;95.40;;;;;;6251147;28;20479;-62
2023/03/09 07:01:21;;;;;;;21.33;14.20;;;9.80;95.40;;;;;;6250984;28;20475;-63
2023/03/09 07:04:26;;;;;;;14.67;11.53;;;9.90;95.20;;;;;;6251276;28;20479;-62
2023/03/09 07:07:29;;;;;;;12.93;11.63;;;9.90;95.00;;;;;;6250573;28;20792;-63
2023/03/09 07:10:33;;;;;;;17.23;9.83;;;10.00;94.40;;;;;;6251073;28;20509;-62
2023/03/09 07:13:36;;;;;;;15.43;8.67;;;10.20;94.30;;;;;;6250156;28;20770;-63
2023/03/09 07:16:39;;;;;;;8.10;7.30;;;10.40;94.20;;;;;;6251007;28;20479;-64
2023/03/09 07:19:44;;;;;;;22.70;12.70;;;10.50;94.00;;;;;;6250895;28;20485;-64
2023/03/09 07:22:47;;;;;;;17.70;10.50;;;10.70;93.60;;;;;;6250364;28;20471;-64
2023/03/09 07:25:50;;;;;;;16.70;8.53;;;11.00;93.40;;;;;;6250924;28;20474;-64
2023/03/09 07:28:53;;;;;;;9.43;8.43;;;11.20;92.80;;;;;;6250553;28;20815;-64
2023/03/09 07:31:57;;;;;;;16.03;9.90;;;11.50;92.70;;;;;;6250311;28;20493;-64
2023/03/09 07:35:01;;;;;;;16.17;8.03;;;11.80;92.40;;;;;;6250577;28;20494;-64
2023/03/09 07:38:05;;;;;;;13.67;8.13;;;12.10;92.10;;;;;;6251295;28;20471;-64
2023/03/09 07:41:08;;;;;;;9.27;6.50;;;12.40;90.90;;;;;;6253805;28;20444;-64
2023/03/09 07:44:11;;;;;;;7.30;6.50;;;12.80;90.40;;;;;;6250994;28;20907;-64
2023/03/09 07:47:14;;;;;;;6.73;6.03;;;13.30;90.00;;;;;;6249865;28;20439;-64
2023/03/09 07:50:19;;;;;;;9.80;5.60;;;13.60;87.40;;;;;;6253073;28;20497;-63
2023/03/09 07:53:23;;;;;;;9.70;5.40;;;14.20;87.10;;;;;;6248180;28;20454;-62
2023/03/09 07:56:26;;;;;;;8.00;5.53;;;15.40;82.20;;;;;;6250623;28;20772;-62
2023/03/09 07:59:29;;;;;;;6.13;5.53;;;16.80;77.30;;;;;;6250218;28;20475;-63
2023/03/09 08:02:33;;;;;;;9.07;5.53;;;18.40;68.70;;;;;;6249804;28;20478;-63
2023/03/09 08:05:37;;;;;;;6.83;6.13;;;20.60;61.80;;;;;;6249901;28;20236;-63
2023/03/09 08:08:40;;;;;;;12.17;6.27;;;22.70;53.50;;;;;;6249813;28;20566;-63
2023/03/09 08:11:44;;;;;;;9.27;7.00;;;23.50;47.60;;;;;;6249847;28;20235;-63
2023/03/09 08:14:48;;;;;;;9.87;6.83;;;24.20;45.30;;;;;;6250220;28;20236;-64
2023/03/09 08:17:51;;;;;;;8.30;7.40;;;26.00;41.10;;;;;;6249695;28;20228;-63
2023/03/09 08:20:56;;;;;;;15.50;8.60;;;26.90;37.20;;;;;;6249879;28;20231;-63
2023/03/09 08:24:00;;;;;;;8.50;6.40;;;28.30;35.20;;;;;;6250055;28;20569;-63
2023/03/09 08:27:04;;;;;;;8.57;5.70;;;30.10;31.20;;;;;;6248899;28;20239;-63
2023/03/09 08:30:08;;;;;;;3.38;3.08;;;32.10;28.60;;;;;;6249928;28;20539;-63
2023/03/09 08:33:11;;;;;;;2.88;2.10;;;33.30;25.00;;;;;;6238329;28;20227;-64
2023/03/09 08:36:18;;;;;;;4.00;2.08;;;32.50;24.40;;;;;;6241592;28;20419;-66
2023/03/09 08:39:21;;;;;;;3.10;2.17;;;33.10;24.10;;;;;;6244149;28;20318;-66
2023/03/09 08:42:25;;;;;;;2.33;1.67;;;33.60;23.00;;;;;;6249217;28;20234;-65
2023/03/09 08:45:28;;;;;;;2.13;1.50;;;34.10;22.80;;;;;;6249318;28;20231;-66
2023/03/09 08:48:31;;;;;;;2.17;1.67;;;34.60;22.00;;;;;;6248706;28;20605;-68
2023/03/09 08:51:36;;;;;;;4.25;2.00;;;35.10;21.40;;;;;;6248900;28;20549;-68
2023/03/09 08:54:39;;;;;;;1.70;1.60;;;36.20;20.40;;;;;;6248891;28;20733;-65
2023/03/09 08:57:42;;;;;;;2.22;1.75;;;37.50;19.70;;;;;;6230047;28;20232;-65
2023/03/09 09:00:47;;;;;;;3.38;2.30;;;38.40;19.00;;;;;;6226958;28;20283;-65
2023/03/09 09:03:50;;;;;;;1.33;1.13;;;39.50;17.80;;;;;;6224748;28;20289;-69
2023/03/09 09:06:55;;;;;;;2.63;1.70;;;40.40;16.90;;;;;;6224641;28;20255;-69
2023/03/09 09:09:59;;;;;;;1.55;1.45;;;39.60;16.50;;;;;;6224064;28;20566;-68
2023/03/09 09:13:02;;;;;;;3.85;1.58;;;38.40;16.70;;;;;;6239613;28;20301;-67
2023/03/09 09:16:06;;;;;;;3.03;1.85;;;37.80;17.10;;;;;;6248939;28;20227;-64
2023/03/09 09:19:10;;;;;;;1.92;1.40;;;37.30;17.50;;;;;;6249355;28;20235;-66
2023/03/09 09:22:14;;;;;;;2.63;1.65;;;37.80;17.10;;;;;;6249531;28;20307;-67
2023/03/09 09:25:18;;;;;;;1.60;1.50;;;38.40;16.80;;;;;;6248975;28;20558;-66
2023/03/09 09:28:21;;;;;;;10.07;1.63;;;38.60;16.60;;;;;;6251316;28;20668;-67
2023/03/09 09:31:24;;;;;;;7.32;3.08;;;39.30;16.10;;;;;;6267544;28;20233;-68
2023/03/09 09:34:31;;;;;;;3.35;1.88;;;40.40;15.60;;;;;;6260581;28;20570;-68
2023/03/09 09:37:35;;;;;;;5.97;2.17;;;41.10;15.00;;;;;;6264864;28;20231;-68
2023/03/09 09:40:42;;;;;;;4.82;1.67;;;41.20;14.70;;;;;;6259025;28;20580;-70
2023/03/09 09:43:47;;;;;;;4.82;2.15;;;41.60;14.50;;;;;;6253521;28;20232;-69
2023/03/09 09:46:53;;;;;;;2.22;1.70;;;41.40;14.60;;;;;;6247258;28;20318;-67
2023/03/09 09:50:00;;;;;;;2.75;2.28;;;42.00;14.20;;;;;;6253169;28;20556;-67
2023/03/09 09:53:07;;;;;;;2.13;2.03;;;41.30;13.50;;;;;;6253218;28;20224;-67
2023/03/09 09:56:16;;;;;;;2.67;2.20;;;38.90;14.50;;;;;;6253495;28;20212;-67
2023/03/09 09:59:23;;;;;;;2.92;2.30;;;38.10;14.90;;;;;;6252715;28;20563;-68
2023/03/09 10:02:54;;;;;;;3.92;2.53;;;35.60;15.90;;;;;;6253120;28;20235;-69
2023/03/09 10:06:04;;;;;;;2.72;2.08;;;34.90;17.30;;;;;;6253517;28;20671;-67
2023/03/09 10:09:14;;;;;;;3.35;2.30;;;32.90;17.60;;;;;;6260555;28;20232;-66
2023/03/09 10:12:17;;;;;;;2.60;2.30;;;30.10;20.10;;;;;;6270280;28;20239;-67
2023/03/09 10:15:27;;;;;;;7.03;2.27;;;28.20;21.70;;;;;;6261099;28;20234;-67
2023/03/09 10:18:35;;;;;;;3.10;2.67;;;26.00;23.60;;;;;;6252652;28;20227;-64
2023/03/09 10:21:47;;;;;;;2.40;2.20;;;24.70;25.30;;;;;;6251762;28;20235;-66
2023/03/09 10:24:53;;;;;;;2.20;2.00;;;23.80;26.40;;;;;;6252837;28;20311;-67
2023/03/09 10:28:05;;;;;;;3.30;1.47;;;23.00;27.40;;;;;;6252696;28;20246;-67
2023/03/09 10:31:15;;;;;;;2.60;1.70;;;22.30;28.20;;;;;;6252711;28;20251;-67
2023/03/09 10:34:23;;;;;;;1.47;1.37;;;22.50;28.10;;;;;;6252575;28;20224;-67
2023/03/09 10:37:34;;;;;;;1.90;1.67;;;23.00;27.40;;;;;;6252195;28;20236;-67
2023/03/09 10:40:43;;;;;;;2.10;1.73;;;22.50;27.80;;;;;;6227464;28;20233;-67
2023/03/09 10:43:47;;;;;;;3.23;1.40;;;22.00;28.50;;;;;;6227090;28;20236;-68
2023/03/09 10:46:58;;;;;;;2.00;1.17;;;21.40;29.30;;;;;;6239714;28;20234;-67
2023/03/09 10:50:10;;;;;;;2.00;1.57;;;20.80;30.10;;;;;;6250381;28;20252;-68
2023/03/09 10:53:34;;;;;;;2.60;1.30;;;20.40;32.00;;;;;;6251254;28;20235;-64
2023/03/09 10:56:45;;;;;;;2.20;1.53;;;20.40;32.80;;;;;;6251618;28;20680;-69
2023/03/09 10:59:56;;;;;;;1.83;1.50;;;23.10;31.70;;;;;;6250933;28;20232;-69
2023/03/09 11:03:00;;;;;;;2.03;1.70;;;28.70;25.80;;;;;;6247131;28;20240;-65
2023/03/09 11:06:22;;;;;;;2.03;1.23;;;33.20;21.50;;;;;;6250815;28;20242;-67
2023/03/09 11:09:30;;;;;;;1.20;1.00;;;37.00;18.60;;;;;;6250775;28;20256;-68
2023/03/09 11:12:39;;;;;;;1.02;0.75;;;38.30;16.00;;;;;;6251036;28;20232;-68
2023/03/09 11:15:43;;;;;;;1.00;0.90;;;37.30;16.10;;;;;;6250768;28;20303;-65
2023/03/09 11:18:48;;;;;;;1.17;1.00;;;37.20;15.90;;;;;;6250647;28;20227;-65
2023/03/09 11:21:58;;;;;;;2.53;0.85;;;35.00;16.40;;;;;;6251206;28;20220;-66
2023/03/09 11:25:02;;;;;;;1.23;0.93;;;33.40;17.60;;;;;;6251112;28;20293;-66
2023/03/09 11:28:16;;;;;;;4.35;0.93;;;32.20;18.00;;;;;;6250944;28;20242;-65
2023/03/09 11:31:21;;;;;;;1.77;0.73;;;32.30;18.80;;;;;;6250774;28;20262;-66
2023/03/09 11:34:28;;;;;;;1.42;0.57;;;34.30;17.40;;;;;;6250811;28;20333;-65
2023/03/09 11:37:38;;;;;;;1.10;0.60;;;35.70;17.00;;;;;;6250200;28;20250;-66
2023/03/09 11:40:42;;;;;;;1.80;0.80;;;38.70;15.40;;;;;;6225598;28;20239;-70
2023/03/09 11:43:51;;;;;;;2.08;0.70;;;41.00;13.70;;;;;;6226407;28;20224;-65
2023/03/09 11:47:00;;;;;;;1.08;0.43;;;40.60;13.30;;;;;;6238401;28;20231;-68
2023/03/09 11:50:12;;;;;;;1.92;0.80;;;41.80;12.50;;;;;;6249924;28;20749;-66
2023/03/09 11:53:23;;;;;;;2.45;0.85;;;44.00;12.00;;;;;;6250243;28;20307;-66
2023/03/09 11:56:29;;;;;;;1.20;0.80;;;45.20;10.10;;;;;;6249972;28;20206;-67
2023/03/09 11:59:40;;;;;;;2.20;1.00;;;45.90;9.70;;;;;;6249891;28;20960;-67
2023/03/09 12:02:55;;;;;;;1.50;0.47;;;46.40;9.00;;;;;;6250158;28;20360;-66
2023/03/09 12:06:04;;;;;;;1.25;0.70;;;45.60;8.90;;;;;;6241196;28;20556;-68
2023/03/09 12:09:10;;;;;;;0.70;0.43;;;45.10;8.60;;;;;;6249789;28;20687;-67
2023/03/09 12:12:24;;;;;;;0.90;0.45;;;45.40;8.60;;;;;;6243722;28;20232;-68
2023/03/09 12:15:35;;;;;;;0.90;0.40;;;45.40;8.80;;;;;;6225251;28;20234;-69
2023/03/09 12:18:42;;;;;;;1.30;0.60;;;46.40;8.70;;;;;;6225089;28;20679;-66
2023/03/09 12:21:48;;;;;;;2.30;0.98;;;47.10;8.50;;;;;;6225127;28;20236;-68
2023/03/09 12:24:56;;;;;;;1.75;0.93;;;47.70;8.20;;;;;;6225249;28;20240;-66
2023/03/09 12:28:03;;;;;;;0.70;0.57;;;48.90;7.90;;;;;;6224966;28;20257;-67
2023/03/09 12:31:30;;;;;;;1.00;0.60;;;48.80;7.20;;;;;;6224772;28;20231;-67
2023/03/09 12:34:40;;;;;;;2.85;0.57;;;49.20;7.20;;;;;;6225251;28;20355;-66
2023/03/09 12:37:57;;;;;;;0.90;0.70;;;50.10;6.80;;;;;;6225524;28;20246;-66
2023/03/09 12:41:00;;;;;;;0.70;0.43;;;50.20;6.50;;;;;;6249528;28;20691;-67
2023/03/09 12:44:04;;;;;;;2.35;0.93;;;50.20;6.30;;;;;;6249054;28;20231;-67
2023/03/09 12:47:22;;;;;;;0.95;0.73;;;49.30;6.30;;;;;;6249223;28;20234;-68
2023/03/09 12:50:34;;;;;;;0.95;0.70;;;49.10;6.60;;;;;;6249163;28;20535;-69
2023/03/09 12:53:58;;;;;;;0.95;0.50;;;49.50;6.80;;;;;;6249330;28;20228;-68
2023/03/09 12:57:12;;;;;;;1.13;0.80;;;49.00;6.50;;;;;;6241861;28;20243;-67
2023/03/09 13:00:29;;;;;;;0.85;0.60;;;46.20;7.20;;;;;;6211369;28;56686;-65
2023/03/09 13:03:41;;;;;;;1.60;1.23;;;41.30;9.00;;;;;;6200052;28;20237;-64
2023/03/09 13:06:52;;;;;;;1.10;0.60;;;39.50;10.80;;;;;;6200405;28;20672;-64
2023/03/09 13:09:55;;;;;;;2.00;0.63;;;40.60;10.10;;;;;;6199872;28;20233;-65
2023/03/09 13:13:32;;;;;;;2.15;0.73;;;42.20;9.40;;;;;;6202090;28;20564;-64
2023/03/09 13:16:54;;;;;;;1.00;0.80;;;42.60;8.90;;;;;;6204750;28;20534;-65
2023/03/09 13:20:17;;;;;;;1.40;0.80;;;44.10;8.60;;;;;;6204451;28;20242;-65
2023/03/09 13:23:22;;;;;;;0.70;0.60;;;45.40;8.10;;;;;;6204244;28;20203;-66
2023/03/09 13:26:26;;;;;;;1.10;0.60;;;45.00;7.90;;;;;;6204738;28;20213;-65
2023/03/09 13:29:30;;;;;;;0.80;0.60;;;44.40;8.10;;;;;;6204316;28;20240;-65
2023/03/09 13:32:57;;;;;;;0.95;0.68;;;44.50;8.20;;;;;;6204442;28;20313;-65
2023/03/09 13:36:09;;;;;;;1.27;0.85;;;45.80;8.00;;;;;;6204692;28;20244;-65
2023/03/09 13:39:18;;;;;;;0.80;0.60;;;46.00;7.30;;;;;;6203857;28;20677;-65
2023/03/09 13:42:22;;;;;;;0.95;0.65;;;45.30;7.60;;;;;;6204229;28;20249;-64
2023/03/09 13:45:29;;;;;;;3.53;0.80;;;44.70;7.70;;;;;;6204071;28;20237;-64
2023/03/09 13:48:36;;;;;;;1.30;0.70;;;43.70;8.20;;;;;;6204146;28;20249;-64
2023/03/09 13:51:50;;;;;;;0.85;0.47;;;41.50;9.10;;;;;;6179292;28;20233;-64
2023/03/09 13:54:55;;;;;;;1.20;0.63;;;38.60;10.30;;;;;;6179156;28;20235;-64
2023/03/09 13:58:14;;;;;;;1.75;0.77;;;36.40;11.50;;;;;;6179708;28;20241;-63
2023/03/09 14:01:23;;;;;;;1.13;0.70;;;34.40;12.70;;;;;;6182213;28;20232;-63
2023/03/09 14:04:26;;;;;;;2.05;0.70;;;32.20;13.90;;;;;;6190002;28;20350;-63
2023/03/09 14:07:35;;;;;;;3.70;0.77;;;30.50;15.30;;;;;;6192827;28;20229;-63
2023/03/09 14:10:40;;;;;;;0.90;0.60;;;28.50;16.60;;;;;;6191685;28;20221;-63
2023/03/09 14:13:49;;;;;;;1.20;0.50;;;27.00;17.60;;;;;;6189064;28;20231;-63
2023/03/09 14:16:54;;;;;;;1.30;0.60;;;26.30;18.30;;;;;;6192265;28;20233;-63
2023/03/09 14:19:57;;;;;;;2.70;1.57;;;25.60;18.90;;;;;;6195444;28;20240;-62
2023/03/09 14:23:15;;;;;;;1.23;0.50;;;25.00;19.30;;;;;;6180066;28;20233;-62
2023/03/09 14:26:30;;;;;;;1.77;0.67;;;24.40;19.40;;;;;;6182913;28;20218;-66
2023/03/09 14:29:33;;;;;;;1.50;0.70;;;24.00;19.60;;;;;;6202686;28;20566;-65
2023/03/09 14:32:37;;;;;;;1.93;0.40;;;23.80;20.10;;;;;;6202974;28;20666;-65
2023/03/09 14:35:40;;;;;;;3.27;0.60;;;23.40;20.00;;;;;;6202928;28;20236;-66
2023/03/09 14:38:55;;;;;;;1.90;0.67;;;23.20;20.40;;;;;;6193565;28;20245;-66
2023/03/09 14:42:06;;;;;;;1.40;0.50;;;23.20;21.00;;;;;;6178539;28;20226;-70
2023/03/09 14:45:25;;;;;;;2.10;0.70;;;23.10;20.90;;;;;;6178368;28;20233;-68
2023/03/09 14:48:28;;;;;;;1.27;0.57;;;22.90;21.10;;;;;;6177410;28;20246;-66
2023/03/09 14:51:34;;;;;;;1.10;0.50;;;22.70;21.10;;;;;;6179314;28;20242;-69
2023/03/09 14:54:39;;;;;;;0.80;0.47;;;22.70;21.30;;;;;;6179522;28;20252;-68
2023/03/09 14:57:42;;;;;;;1.13;0.60;;;22.60;21.40;;;;;;6178439;28;20268;-63
2023/03/09 15:00:46;;;;;;;2.70;0.70;;;22.40;21.10;;;;;;6178670;28;20541;-67
2023/03/09 15:03:51;;;;;;;0.90;0.60;;;22.00;21.30;;;;;;6178304;28;20232;-66
2023/03/09 15:06:54;;;;;;;0.73;0.50;;;21.70;21.90;;;;;;6178994;28;20237;-66
2023/03/09 15:09:59;;;;;;;0.80;0.60;;;21.30;22.10;;;;;;6177940;28;20317;-69
2023/03/09 15:13:03;;;;;;;0.50;0.40;;;21.10;22.50;;;;;;6191498;28;20238;-65
2023/03/09 15:16:06;;;;;;;1.13;0.60;;;21.00;22.60;;;;;;6201322;28;20225;-68
2023/03/09 15:19:16;;;;;;;1.23;0.60;;;20.90;22.70;;;;;;6196982;28;20675;-66
2023/03/09 15:22:20;;;;;;;0.87;0.60;;;20.70;22.60;;;;;;6202134;28;20233;-64
2023/03/09 15:25:24;;;;;;;1.53;0.43;;;20.50;22.80;;;;;;6201188;28;20245;-63
2023/03/09 15:28:28;;;;;;;2.77;0.60;;;20.50;23.80;;;;;;6201533;28;20694;-63
2023/03/09 15:31:31;;;;;;;0.60;0.50;;;20.50;23.90;;;;;;6201245;28;20226;-65
2023/03/09 15:34:35;;;;;;;1.17;0.43;;;20.40;23.70;;;;;;6201104;28;20244;-66
2023/03/09 15:37:38;;;;;;;0.60;0.47;;;20.40;23.80;;;;;;6202230;28;20662;-66
2023/03/09 15:40:43;;;;;;;0.63;0.40;;;20.30;23.80;;;;;;6201616;28;20233;-67
2023/03/09 15:43:47;;;;;;;2.00;0.77;;;20.20;24.60;;;;;;6201280;28;20225;-66
2023/03/09 15:46:50;;;;;;;0.90;0.50;;;20.10;23.90;;;;;;6201488;28;20240;-66
2023/03/09 15:49:53;;;;;;;0.63;0.50;;;20.00;24.30;;;;;;6201069;28;20237;-64
2023/03/09 15:52:56;;;;;;;1.37;0.40;;;19.90;24.40;;;;;;6201482;28;20233;-67
2023/03/09 15:56:03;;;;;;;2.00;0.90;;;19.90;24.10;;;;;;6201294;28;20225;-66
2023/03/09 15:59:07;;;;;;;1.73;0.73;;;19.80;24.10;;;;;;6201017;28;20244;-66
2023/03/09 16:02:10;;;;;;;3.17;0.60;;;19.70;24.20;;;;;;6200763;28;20238;-67
2023/03/09 16:05:15;;;;;;;0.57;0.43;;;19.70;24.50;;;;;;6200846;28;20624;-64
2023/03/09 16:08:19;;;;;;;1.80;0.57;;;19.60;24.50;;;;;;6202061;28;20656;-64
2023/03/09 16:11:23;;;;;;;1.00;0.60;;;19.60;24.60;;;;;;6200902;28;20206;-64